sensor_id;sensor_type;location;lat;lon;timestamp;P1;durP1;ratioP1;P2;durP2;ratioP2
48685;SDS011;34485;51.536;3.816;2024-03-02T00:00:08;2.10;;;2.00;;
48685;SDS011;34485;51.536;3.816;2024-03-02T00:02:41;4.10;;;1.83;;
48685;SDS011;34485;51.536;3.816;2024-03-02T00:05:12;1.55;;;1.45;;
48685;SDS011;34485;51.536;3.816;2024-03-02T00:07:42;1.63;;;1.63;;
48685;SDS011;34485;51.536;3.816;2024-03-02T00:10:09;1.65;;;1.55;;
48685;SDS011;34485;51.536;3.816;2024-03-02T00:12:37;6.85;;;2.05;;
48685;SDS011;34485;51.536;3.816;2024-03-02T00:15:46;3.07;;;2.90;;
48685;SDS011;34485;51.536;3.816;2024-03-02T00:18:05;4.35;;;1.80;;
48685;SDS011;34485;51.536;3.816;2024-03-02T00:20:31;2.85;;;2.08;;
48685;SDS011;34485;51.536;3.816;2024-03-02T00:23:07;2.03;;;1.83;;
48685;SDS011;34485;51.536;3.816;2024-03-02T00:25:42;1.73;;;1.63;;
48685;SDS011;34485;51.536;3.816;2024-03-02T00:28:16;1.85;;;1.75;;
48685;SDS011;34485;51.536;3.816;2024-03-02T00:30:54;1.70;;;1.60;;
48685;SDS011;34485;51.536;3.816;2024-03-02T00:33:25;2.85;;;2.40;;
48685;SDS011;34485;51.536;3.816;2024-03-02T00:35:52;2.22;;;2.13;;
48685;SDS011;34485;51.536;3.816;2024-03-02T00:38:18;2.30;;;2.20;;
48685;SDS011;34485;51.536;3.816;2024-03-02T00:40:44;2.38;;;2.17;;
48685;SDS011;34485;51.536;3.816;2024-03-02T00:46:06;2.10;;;1.97;;
48685;SDS011;34485;51.536;3.816;2024-03-02T00:48:32;2.25;;;2.05;;
48685;SDS011;34485;51.536;3.816;2024-03-02T00:51:00;5.85;;;2.15;;
48685;SDS011;34485;51.536;3.816;2024-03-02T00:53:29;2.95;;;2.75;;
48685;SDS011;34485;51.536;3.816;2024-03-02T00:55:56;2.30;;;2.20;;
48685;SDS011;34485;51.536;3.816;2024-03-02T00:58:22;2.03;;;1.90;;
48685;SDS011;34485;51.536;3.816;2024-03-02T01:00:48;6.60;;;2.67;;
48685;SDS011;34485;51.536;3.816;2024-03-02T01:03:13;1.60;;;1.50;;
48685;SDS011;34485;51.536;3.816;2024-03-02T01:05:42;2.50;;;2.30;;
48685;SDS011;34485;51.536;3.816;2024-03-02T01:08:11;2.90;;;2.70;;
48685;SDS011;34485;51.536;3.816;2024-03-02T01:10:37;2.63;;;2.47;;
48685;SDS011;34485;51.536;3.816;2024-03-02T01:13:03;5.53;;;2.78;;
48685;SDS011;34485;51.536;3.816;2024-03-02T01:15:28;2.40;;;1.90;;
48685;SDS011;34485;51.536;3.816;2024-03-02T01:17:54;1.67;;;1.58;;
48685;SDS011;34485;51.536;3.816;2024-03-02T01:20:20;4.23;;;2.70;;
48685;SDS011;34485;51.536;3.816;2024-03-02T01:22:46;3.47;;;1.80;;
48685;SDS011;34485;51.536;3.816;2024-03-02T01:25:12;2.40;;;2.20;;
48685;SDS011;34485;51.536;3.816;2024-03-02T01:27:38;2.83;;;2.67;;
48685;SDS011;34485;51.536;3.816;2024-03-02T01:30:04;3.00;;;2.13;;
48685;SDS011;34485;51.536;3.816;2024-03-02T01:32:30;3.67;;;2.33;;
48685;SDS011;34485;51.536;3.816;2024-03-02T01:34:56;2.45;;;2.35;;
48685;SDS011;34485;51.536;3.816;2024-03-02T01:37:22;2.77;;;2.27;;
48685;SDS011;34485;51.536;3.816;2024-03-02T01:39:47;2.63;;;2.42;;
48685;SDS011;34485;51.536;3.816;2024-03-02T01:42:13;2.03;;;1.93;;
48685;SDS011;34485;51.536;3.816;2024-03-02T01:44:39;2.35;;;2.20;;
48685;SDS011;34485;51.536;3.816;2024-03-02T01:47:05;2.00;;;1.90;;
48685;SDS011;34485;51.536;3.816;2024-03-02T01:49:31;2.60;;;1.87;;
48685;SDS011;34485;51.536;3.816;2024-03-02T01:51:59;2.25;;;1.80;;
48685;SDS011;34485;51.536;3.816;2024-03-02T01:54:24;2.10;;;2.00;;
48685;SDS011;34485;51.536;3.816;2024-03-02T01:56:50;2.43;;;2.33;;
48685;SDS011;34485;51.536;3.816;2024-03-02T01:59:16;4.00;;;2.35;;
48685;SDS011;34485;51.536;3.816;2024-03-02T02:01:42;3.00;;;2.80;;
48685;SDS011;34485;51.536;3.816;2024-03-02T02:04:08;2.85;;;2.60;;
48685;SDS011;34485;51.536;3.816;2024-03-02T02:06:33;2.90;;;2.28;;
48685;SDS011;34485;51.536;3.816;2024-03-02T02:08:59;2.60;;;2.45;;
48685;SDS011;34485;51.536;3.816;2024-03-02T02:11:25;2.67;;;2.47;;
48685;SDS011;34485;51.536;3.816;2024-03-02T02:13:51;2.07;;;1.97;;
48685;SDS011;34485;51.536;3.816;2024-03-02T02:16:17;2.35;;;2.20;;
48685;SDS011;34485;51.536;3.816;2024-03-02T02:18:42;2.60;;;2.40;;
48685;SDS011;34485;51.536;3.816;2024-03-02T02:21:08;3.10;;;2.50;;
48685;SDS011;34485;51.536;3.816;2024-03-02T02:23:34;2.30;;;2.17;;
48685;SDS011;34485;51.536;3.816;2024-03-02T02:26:00;1.98;;;1.88;;
48685;SDS011;34485;51.536;3.816;2024-03-02T02:28:26;2.88;;;2.63;;
48685;SDS011;34485;51.536;3.816;2024-03-02T02:30:52;2.07;;;1.97;;
48685;SDS011;34485;51.536;3.816;2024-03-02T02:33:21;3.13;;;1.52;;
48685;SDS011;34485;51.536;3.816;2024-03-02T02:35:47;2.67;;;1.80;;
48685;SDS011;34485;51.536;3.816;2024-03-02T02:38:13;1.87;;;1.77;;
48685;SDS011;34485;51.536;3.816;2024-03-02T02:40:39;2.03;;;1.92;;
48685;SDS011;34485;51.536;3.816;2024-03-02T02:43:04;6.93;;;3.30;;
48685;SDS011;34485;51.536;3.816;2024-03-02T02:45:31;3.10;;;1.63;;
48685;SDS011;34485;51.536;3.816;2024-03-02T02:47:57;5.72;;;2.28;;
48685;SDS011;34485;51.536;3.816;2024-03-02T02:50:23;3.83;;;1.85;;
48685;SDS011;34485;51.536;3.816;2024-03-02T02:52:48;2.90;;;1.90;;
48685;SDS011;34485;51.536;3.816;2024-03-02T02:55:15;2.78;;;2.58;;
48685;SDS011;34485;51.536;3.816;2024-03-02T02:57:41;2.53;;;2.33;;
48685;SDS011;34485;51.536;3.816;2024-03-02T03:00:09;3.70;;;2.53;;
48685;SDS011;34485;51.536;3.816;2024-03-02T03:02:43;4.38;;;2.72;;
48685;SDS011;34485;51.536;3.816;2024-03-02T03:05:10;3.75;;;2.80;;
48685;SDS011;34485;51.536;3.816;2024-03-02T03:07:37;2.50;;;2.40;;
48685;SDS011;34485;51.536;3.816;2024-03-02T03:10:04;5.65;;;2.75;;
48685;SDS011;34485;51.536;3.816;2024-03-02T03:12:31;2.85;;;2.65;;
48685;SDS011;34485;51.536;3.816;2024-03-02T03:14:57;7.72;;;3.25;;
48685;SDS011;34485;51.536;3.816;2024-03-02T03:17:23;5.43;;;3.03;;
48685;SDS011;34485;51.536;3.816;2024-03-02T03:19:49;3.25;;;3.00;;
48685;SDS011;34485;51.536;3.816;2024-03-02T03:22:15;3.33;;;2.85;;
48685;SDS011;34485;51.536;3.816;2024-03-02T03:24:41;3.50;;;3.10;;
48685;SDS011;34485;51.536;3.816;2024-03-02T03:27:07;3.60;;;3.30;;
48685;SDS011;34485;51.536;3.816;2024-03-02T03:29:33;6.97;;;2.60;;
48685;SDS011;34485;51.536;3.816;2024-03-02T03:31:58;5.05;;;2.83;;
48685;SDS011;34485;51.536;3.816;2024-03-02T03:34:24;3.13;;;2.67;;
48685;SDS011;34485;51.536;3.816;2024-03-02T03:36:50;6.88;;;3.25;;
48685;SDS011;34485;51.536;3.816;2024-03-02T03:39:15;2.93;;;2.73;;
48685;SDS011;34485;51.536;3.816;2024-03-02T03:41:42;2.95;;;2.58;;
48685;SDS011;34485;51.536;3.816;2024-03-02T03:44:08;7.07;;;3.20;;
48685;SDS011;34485;51.536;3.816;2024-03-02T03:46:34;5.88;;;3.50;;
48685;SDS011;34485;51.536;3.816;2024-03-02T03:49:00;3.50;;;3.25;;
48685;SDS011;34485;51.536;3.816;2024-03-02T03:51:25;2.83;;;2.30;;
48685;SDS011;34485;51.536;3.816;2024-03-02T03:53:51;3.60;;;3.22;;
48685;SDS011;34485;51.536;3.816;2024-03-02T03:56:17;4.63;;;3.30;;
48685;SDS011;34485;51.536;3.816;2024-03-02T03:58:42;4.70;;;3.43;;
48685;SDS011;34485;51.536;3.816;2024-03-02T04:01:08;8.23;;;3.75;;
48685;SDS011;34485;51.536;3.816;2024-03-02T04:03:34;2.28;;;2.08;;
48685;SDS011;34485;51.536;3.816;2024-03-02T04:06:00;6.38;;;3.53;;
48685;SDS011;34485;51.536;3.816;2024-03-02T04:08:25;5.67;;;2.83;;
48685;SDS011;34485;51.536;3.816;2024-03-02T04:10:51;3.08;;;2.50;;
48685;SDS011;34485;51.536;3.816;2024-03-02T04:13:17;4.73;;;3.33;;
48685;SDS011;34485;51.536;3.816;2024-03-02T04:15:42;11.02;;;3.22;;
48685;SDS011;34485;51.536;3.816;2024-03-02T04:18:08;8.43;;;3.87;;
48685;SDS011;34485;51.536;3.816;2024-03-02T04:20:34;3.47;;;2.78;;
48685;SDS011;34485;51.536;3.816;2024-03-02T04:23:00;7.18;;;4.57;;
48685;SDS011;34485;51.536;3.816;2024-03-02T04:25:25;4.13;;;2.83;;
48685;SDS011;34485;51.536;3.816;2024-03-02T04:27:51;4.88;;;2.88;;
48685;SDS011;34485;51.536;3.816;2024-03-02T04:30:17;5.97;;;3.13;;
48685;SDS011;34485;51.536;3.816;2024-03-02T04:32:43;4.05;;;2.72;;
48685;SDS011;34485;51.536;3.816;2024-03-02T04:35:11;2.67;;;2.43;;
48685;SDS011;34485;51.536;3.816;2024-03-02T04:37:40;2.22;;;2.10;;
48685;SDS011;34485;51.536;3.816;2024-03-02T04:40:06;3.15;;;2.28;;
48685;SDS011;34485;51.536;3.816;2024-03-02T04:42:35;6.23;;;2.43;;
48685;SDS011;34485;51.536;3.816;2024-03-02T04:45:01;3.45;;;2.03;;
48685;SDS011;34485;51.536;3.816;2024-03-02T04:47:27;3.67;;;3.38;;
48685;SDS011;34485;51.536;3.816;2024-03-02T04:49:53;2.37;;;2.13;;
48685;SDS011;34485;51.536;3.816;2024-03-02T04:52:19;2.78;;;2.28;;
48685;SDS011;34485;51.536;3.816;2024-03-02T04:54:44;4.10;;;2.85;;
48685;SDS011;34485;51.536;3.816;2024-03-02T04:57:28;3.78;;;2.70;;
48685;SDS011;34485;51.536;3.816;2024-03-02T04:59:54;4.25;;;2.42;;
48685;SDS011;34485;51.536;3.816;2024-03-02T05:02:20;4.37;;;3.40;;
48685;SDS011;34485;51.536;3.816;2024-03-02T05:04:45;9.10;;;3.53;;
48685;SDS011;34485;51.536;3.816;2024-03-02T05:07:13;4.60;;;2.23;;
48685;SDS011;34485;51.536;3.816;2024-03-02T05:09:39;4.60;;;2.65;;
48685;SDS011;34485;51.536;3.816;2024-03-02T05:12:05;2.45;;;2.25;;
48685;SDS011;34485;51.536;3.816;2024-03-02T05:14:56;2.95;;;2.75;;
48685;SDS011;34485;51.536;3.816;2024-03-02T05:17:22;1.87;;;1.77;;
48685;SDS011;34485;51.536;3.816;2024-03-02T05:19:48;6.28;;;2.47;;
48685;SDS011;34485;51.536;3.816;2024-03-02T05:22:13;4.30;;;2.73;;
48685;SDS011;34485;51.536;3.816;2024-03-02T05:24:39;4.13;;;2.03;;
48685;SDS011;34485;51.536;3.816;2024-03-02T05:27:05;10.25;;;3.97;;
48685;SDS011;34485;51.536;3.816;2024-03-02T05:29:32;5.85;;;3.50;;
48685;SDS011;34485;51.536;3.816;2024-03-02T05:31:59;3.43;;;3.10;;
48685;SDS011;34485;51.536;3.816;2024-03-02T05:34:24;3.40;;;2.50;;
48685;SDS011;34485;51.536;3.816;2024-03-02T05:36:50;2.63;;;2.43;;
48685;SDS011;34485;51.536;3.816;2024-03-02T05:39:15;4.55;;;2.83;;
48685;SDS011;34485;51.536;3.816;2024-03-02T05:41:41;5.13;;;2.73;;
48685;SDS011;34485;51.536;3.816;2024-03-02T05:44:07;2.88;;;2.42;;
48685;SDS011;34485;51.536;3.816;2024-03-02T05:46:32;2.40;;;1.80;;
48685;SDS011;34485;51.536;3.816;2024-03-02T05:48:59;2.47;;;2.33;;
48685;SDS011;34485;51.536;3.816;2024-03-02T05:51:25;2.60;;;2.30;;
48685;SDS011;34485;51.536;3.816;2024-03-02T05:53:51;4.82;;;2.53;;
48685;SDS011;34485;51.536;3.816;2024-03-02T05:56:17;4.70;;;2.53;;
48685;SDS011;34485;51.536;3.816;2024-03-02T05:58:42;2.72;;;2.53;;
48685;SDS011;34485;51.536;3.816;2024-03-02T06:01:23;7.75;;;3.17;;
48685;SDS011;34485;51.536;3.816;2024-03-02T06:03:53;4.10;;;2.92;;
48685;SDS011;34485;51.536;3.816;2024-03-02T06:06:20;6.57;;;2.90;;
48685;SDS011;34485;51.536;3.816;2024-03-02T06:08:46;6.57;;;2.45;;
48685;SDS011;34485;51.536;3.816;2024-03-02T06:11:12;7.77;;;3.47;;
48685;SDS011;34485;51.536;3.816;2024-03-02T06:13:38;3.15;;;2.78;;
48685;SDS011;34485;51.536;3.816;2024-03-02T06:16:04;8.05;;;3.38;;
48685;SDS011;34485;51.536;3.816;2024-03-02T06:18:30;3.58;;;2.60;;
48685;SDS011;34485;51.536;3.816;2024-03-02T06:20:56;4.57;;;2.43;;
48685;SDS011;34485;51.536;3.816;2024-03-02T06:23:21;7.07;;;3.72;;
48685;SDS011;34485;51.536;3.816;2024-03-02T06:25:47;6.00;;;2.77;;
48685;SDS011;34485;51.536;3.816;2024-03-02T06:28:13;4.83;;;2.00;;
48685;SDS011;34485;51.536;3.816;2024-03-02T06:30:40;3.83;;;3.38;;
48685;SDS011;34485;51.536;3.816;2024-03-02T06:33:07;2.70;;;2.22;;
48685;SDS011;34485;51.536;3.816;2024-03-02T06:35:33;5.43;;;3.23;;
48685;SDS011;34485;51.536;3.816;2024-03-02T06:38:00;2.83;;;2.55;;
48685;SDS011;34485;51.536;3.816;2024-03-02T06:40:26;2.28;;;2.17;;
48685;SDS011;34485;51.536;3.816;2024-03-02T06:42:51;3.03;;;2.40;;
48685;SDS011;34485;51.536;3.816;2024-03-02T06:45:17;3.60;;;2.05;;
48685;SDS011;34485;51.536;3.816;2024-03-02T06:47:42;4.93;;;2.33;;
48685;SDS011;34485;51.536;3.816;2024-03-02T06:50:08;2.25;;;2.05;;
48685;SDS011;34485;51.536;3.816;2024-03-02T06:52:34;8.90;;;2.33;;
48685;SDS011;34485;51.536;3.816;2024-03-02T06:55:01;4.63;;;2.60;;
48685;SDS011;34485;51.536;3.816;2024-03-02T06:57:27;3.97;;;1.60;;
48685;SDS011;34485;51.536;3.816;2024-03-02T06:59:52;4.87;;;2.73;;
48685;SDS011;34485;51.536;3.816;2024-03-02T07:02:22;6.03;;;1.98;;
48685;SDS011;34485;51.536;3.816;2024-03-02T07:04:48;2.07;;;1.83;;
48685;SDS011;34485;51.536;3.816;2024-03-02T07:07:14;6.00;;;2.42;;
48685;SDS011;34485;51.536;3.816;2024-03-02T07:09:39;1.52;;;1.42;;
48685;SDS011;34485;51.536;3.816;2024-03-02T07:12:05;2.40;;;1.87;;
48685;SDS011;34485;51.536;3.816;2024-03-02T07:14:31;2.05;;;1.95;;
48685;SDS011;34485;51.536;3.816;2024-03-02T07:17:20;8.83;;;2.63;;
48685;SDS011;34485;51.536;3.816;2024-03-02T07:19:46;2.97;;;1.42;;
48685;SDS011;34485;51.536;3.816;2024-03-02T07:22:12;2.17;;;2.08;;
48685;SDS011;34485;51.536;3.816;2024-03-02T07:24:41;1.77;;;1.63;;
48685;SDS011;34485;51.536;3.816;2024-03-02T07:27:07;2.45;;;2.22;;
48685;SDS011;34485;51.536;3.816;2024-03-02T07:29:35;2.25;;;2.05;;
48685;SDS011;34485;51.536;3.816;2024-03-02T07:32:01;4.93;;;2.40;;
48685;SDS011;34485;51.536;3.816;2024-03-02T07:34:27;2.35;;;2.05;;
48685;SDS011;34485;51.536;3.816;2024-03-02T07:36:53;3.77;;;2.33;;
48685;SDS011;34485;51.536;3.816;2024-03-02T07:39:18;4.18;;;2.13;;
48685;SDS011;34485;51.536;3.816;2024-03-02T07:41:45;2.35;;;2.15;;
48685;SDS011;34485;51.536;3.816;2024-03-02T07:44:11;5.18;;;2.20;;
48685;SDS011;34485;51.536;3.816;2024-03-02T07:46:43;1.73;;;1.63;;
48685;SDS011;34485;51.536;3.816;2024-03-02T07:49:09;3.20;;;2.28;;
48685;SDS011;34485;51.536;3.816;2024-03-02T07:51:35;7.27;;;2.30;;
48685;SDS011;34485;51.536;3.816;2024-03-02T07:54:03;3.85;;;2.30;;
48685;SDS011;34485;51.536;3.816;2024-03-02T07:56:29;5.47;;;2.85;;
48685;SDS011;34485;51.536;3.816;2024-03-02T07:58:55;7.00;;;2.55;;
48685;SDS011;34485;51.536;3.816;2024-03-02T08:01:22;7.53;;;2.63;;
48685;SDS011;34485;51.536;3.816;2024-03-02T08:03:48;5.53;;;1.65;;
48685;SDS011;34485;51.536;3.816;2024-03-02T08:06:15;3.92;;;2.25;;
48685;SDS011;34485;51.536;3.816;2024-03-02T08:08:42;4.40;;;1.90;;
48685;SDS011;34485;51.536;3.816;2024-03-02T08:11:08;4.50;;;2.42;;
48685;SDS011;34485;51.536;3.816;2024-03-02T08:13:34;4.57;;;1.60;;
48685;SDS011;34485;51.536;3.816;2024-03-02T08:16:00;2.65;;;2.45;;
48685;SDS011;34485;51.536;3.816;2024-03-02T08:18:28;3.17;;;2.40;;
48685;SDS011;34485;51.536;3.816;2024-03-02T08:20:54;4.27;;;2.00;;
48685;SDS011;34485;51.536;3.816;2024-03-02T08:23:20;4.32;;;2.60;;
48685;SDS011;34485;51.536;3.816;2024-03-02T08:25:45;2.85;;;1.83;;
48685;SDS011;34485;51.536;3.816;2024-03-02T08:28:12;3.60;;;1.98;;
48685;SDS011;34485;51.536;3.816;2024-03-02T08:30:38;5.00;;;1.83;;
48685;SDS011;34485;51.536;3.816;2024-03-02T08:33:03;4.80;;;2.20;;
48685;SDS011;34485;51.536;3.816;2024-03-02T08:35:30;1.97;;;1.80;;
48685;SDS011;34485;51.536;3.816;2024-03-02T08:38:00;4.28;;;2.45;;
48685;SDS011;34485;51.536;3.816;2024-03-02T08:40:26;5.65;;;2.15;;
48685;SDS011;34485;51.536;3.816;2024-03-02T08:42:52;6.50;;;2.60;;
48685;SDS011;34485;51.536;3.816;2024-03-02T08:45:18;4.47;;;2.13;;
48685;SDS011;34485;51.536;3.816;2024-03-02T08:47:45;4.53;;;2.10;;
48685;SDS011;34485;51.536;3.816;2024-03-02T08:50:11;6.13;;;2.70;;
48685;SDS011;34485;51.536;3.816;2024-03-02T08:52:37;3.60;;;2.17;;
48685;SDS011;34485;51.536;3.816;2024-03-02T08:55:03;3.22;;;2.35;;
48685;SDS011;34485;51.536;3.816;2024-03-02T08:57:29;4.05;;;1.52;;
48685;SDS011;34485;51.536;3.816;2024-03-02T08:59:55;3.92;;;2.63;;
48685;SDS011;34485;51.536;3.816;2024-03-02T09:02:21;3.17;;;2.17;;
48685;SDS011;34485;51.536;3.816;2024-03-02T09:04:47;3.13;;;2.13;;
48685;SDS011;34485;51.536;3.816;2024-03-02T09:07:14;2.17;;;2.00;;
48685;SDS011;34485;51.536;3.816;2024-03-02T09:09:39;3.45;;;2.15;;
48685;SDS011;34485;51.536;3.816;2024-03-02T09:12:05;2.87;;;2.20;;
48685;SDS011;34485;51.536;3.816;2024-03-02T09:14:32;5.80;;;2.33;;
48685;SDS011;34485;51.536;3.816;2024-03-02T09:16:58;3.58;;;2.40;;
48685;SDS011;34485;51.536;3.816;2024-03-02T09:19:23;2.80;;;2.60;;
48685;SDS011;34485;51.536;3.816;2024-03-02T09:21:49;6.45;;;2.58;;
48685;SDS011;34485;51.536;3.816;2024-03-02T09:24:15;3.38;;;2.75;;
48685;SDS011;34485;51.536;3.816;2024-03-02T09:26:41;6.10;;;2.33;;
48685;SDS011;34485;51.536;3.816;2024-03-02T09:29:06;4.20;;;2.40;;
48685;SDS011;34485;51.536;3.816;2024-03-02T09:31:32;6.70;;;2.37;;
48685;SDS011;34485;51.536;3.816;2024-03-02T09:33:58;4.97;;;2.50;;
48685;SDS011;34485;51.536;3.816;2024-03-02T09:36:23;4.77;;;2.10;;
48685;SDS011;34485;51.536;3.816;2024-03-02T09:38:49;6.68;;;2.50;;
48685;SDS011;34485;51.536;3.816;2024-03-02T09:41:15;7.67;;;2.43;;
48685;SDS011;34485;51.536;3.816;2024-03-02T09:43:41;5.32;;;2.58;;
48685;SDS011;34485;51.536;3.816;2024-03-02T09:46:10;4.13;;;2.50;;
48685;SDS011;34485;51.536;3.816;2024-03-02T09:48:36;6.47;;;3.20;;
48685;SDS011;34485;51.536;3.816;2024-03-02T09:51:03;4.35;;;2.33;;
48685;SDS011;34485;51.536;3.816;2024-03-02T09:53:31;6.65;;;2.28;;
48685;SDS011;34485;51.536;3.816;2024-03-02T09:55:59;4.32;;;2.65;;
48685;SDS011;34485;51.536;3.816;2024-03-02T09:58:25;7.55;;;2.22;;
48685;SDS011;34485;51.536;3.816;2024-03-02T10:00:51;2.20;;;1.70;;
48685;SDS011;34485;51.536;3.816;2024-03-02T10:03:18;7.63;;;2.78;;
48685;SDS011;34485;51.536;3.816;2024-03-02T10:05:44;4.63;;;2.78;;
48685;SDS011;34485;51.536;3.816;2024-03-02T10:08:09;5.17;;;2.87;;
48685;SDS011;34485;51.536;3.816;2024-03-02T10:10:39;9.75;;;3.33;;
48685;SDS011;34485;51.536;3.816;2024-03-02T10:13:07;7.23;;;2.10;;
48685;SDS011;34485;51.536;3.816;2024-03-02T10:15:34;4.05;;;2.10;;
48685;SDS011;34485;51.536;3.816;2024-03-02T10:18:00;4.25;;;3.00;;
48685;SDS011;34485;51.536;3.816;2024-03-02T10:20:26;5.30;;;2.00;;
48685;SDS011;34485;51.536;3.816;2024-03-02T10:23:13;6.77;;;2.33;;
48685;SDS011;34485;51.536;3.816;2024-03-02T10:25:41;9.07;;;2.80;;
48685;SDS011;34485;51.536;3.816;2024-03-02T10:28:07;4.18;;;2.15;;
48685;SDS011;34485;51.536;3.816;2024-03-02T10:30:33;5.53;;;2.13;;
48685;SDS011;34485;51.536;3.816;2024-03-02T10:32:59;5.00;;;2.42;;
48685;SDS011;34485;51.536;3.816;2024-03-02T10:35:27;6.70;;;2.35;;
48685;SDS011;34485;51.536;3.816;2024-03-02T10:37:53;7.25;;;3.17;;
48685;SDS011;34485;51.536;3.816;2024-03-02T10:40:21;7.78;;;2.72;;
48685;SDS011;34485;51.536;3.816;2024-03-02T10:42:48;7.40;;;4.13;;
48685;SDS011;34485;51.536;3.816;2024-03-02T10:45:16;7.43;;;2.95;;
48685;SDS011;34485;51.536;3.816;2024-03-02T10:47:44;6.25;;;2.90;;
48685;SDS011;34485;51.536;3.816;2024-03-02T10:50:12;6.60;;;2.45;;
48685;SDS011;34485;51.536;3.816;2024-03-02T10:52:38;4.93;;;2.63;;
48685;SDS011;34485;51.536;3.816;2024-03-02T10:55:04;5.43;;;3.00;;
48685;SDS011;34485;51.536;3.816;2024-03-02T11:00:15;3.50;;;1.50;;
48685;SDS011;34485;51.536;3.816;2024-03-02T11:02:43;4.22;;;2.88;;
48685;SDS011;34485;51.536;3.816;2024-03-02T11:05:13;5.23;;;2.80;;
48685;SDS011;34485;51.536;3.816;2024-03-02T11:07:42;4.30;;;2.92;;
48685;SDS011;34485;51.536;3.816;2024-03-02T11:10:08;3.55;;;2.17;;
48685;SDS011;34485;51.536;3.816;2024-03-02T11:12:36;9.68;;;2.08;;
48685;SDS011;34485;51.536;3.816;2024-03-02T11:15:04;6.13;;;2.58;;
48685;SDS011;34485;51.536;3.816;2024-03-02T11:17:36;4.77;;;2.37;;
48685;SDS011;34485;51.536;3.816;2024-03-02T11:20:05;5.57;;;2.63;;
48685;SDS011;34485;51.536;3.816;2024-03-02T11:22:34;3.97;;;1.98;;
48685;SDS011;34485;51.536;3.816;2024-03-02T11:25:01;9.48;;;2.30;;
48685;SDS011;34485;51.536;3.816;2024-03-02T11:32:56;9.43;;;2.75;;
48685;SDS011;34485;51.536;3.816;2024-03-02T11:35:22;4.65;;;2.40;;
48685;SDS011;34485;51.536;3.816;2024-03-02T11:37:50;5.30;;;3.13;;
48685;SDS011;34485;51.536;3.816;2024-03-02T11:40:22;3.05;;;1.80;;
48685;SDS011;34485;51.536;3.816;2024-03-02T11:42:50;6.82;;;1.77;;
48685;SDS011;34485;51.536;3.816;2024-03-02T11:45:25;4.63;;;2.33;;
48685;SDS011;34485;51.536;3.816;2024-03-02T11:47:53;5.60;;;2.63;;
48685;SDS011;34485;51.536;3.816;2024-03-02T11:50:30;4.83;;;2.87;;
48685;SDS011;34485;51.536;3.816;2024-03-02T11:53:00;4.60;;;2.47;;
48685;SDS011;34485;51.536;3.816;2024-03-02T11:55:27;7.93;;;3.20;;
48685;SDS011;34485;51.536;3.816;2024-03-02T11:57:55;8.07;;;2.95;;
48685;SDS011;34485;51.536;3.816;2024-03-02T12:00:21;8.70;;;2.40;;
48685;SDS011;34485;51.536;3.816;2024-03-02T12:05:33;6.07;;;2.17;;
48685;SDS011;34485;51.536;3.816;2024-03-02T12:08:03;4.75;;;1.95;;
48685;SDS011;34485;51.536;3.816;2024-03-02T12:10:31;5.73;;;2.50;;
48685;SDS011;34485;51.536;3.816;2024-03-02T12:13:01;3.35;;;1.95;;
48685;SDS011;34485;51.536;3.816;2024-03-02T12:15:33;6.30;;;2.97;;
48685;SDS011;34485;51.536;3.816;2024-03-02T12:18:00;6.40;;;2.00;;
48685;SDS011;34485;51.536;3.816;2024-03-02T12:20:27;4.97;;;2.42;;
48685;SDS011;34485;51.536;3.816;2024-03-02T12:22:55;2.60;;;2.03;;
48685;SDS011;34485;51.536;3.816;2024-03-02T12:25:23;6.72;;;1.88;;
48685;SDS011;34485;51.536;3.816;2024-03-02T12:27:56;5.40;;;3.17;;
48685;SDS011;34485;51.536;3.816;2024-03-02T12:30:24;7.40;;;2.40;;
48685;SDS011;34485;51.536;3.816;2024-03-02T12:32:54;4.93;;;2.17;;
48685;SDS011;34485;51.536;3.816;2024-03-02T12:35:19;6.27;;;2.03;;
48685;SDS011;34485;51.536;3.816;2024-03-02T12:37:49;8.60;;;3.42;;
48685;SDS011;34485;51.536;3.816;2024-03-02T12:40:16;4.93;;;2.53;;
48685;SDS011;34485;51.536;3.816;2024-03-02T12:42:44;9.88;;;2.95;;
48685;SDS011;34485;51.536;3.816;2024-03-02T12:45:11;5.73;;;2.40;;
48685;SDS011;34485;51.536;3.816;2024-03-02T12:47:38;4.25;;;2.42;;
48685;SDS011;34485;51.536;3.816;2024-03-02T12:50:05;6.65;;;2.67;;
48685;SDS011;34485;51.536;3.816;2024-03-02T12:52:32;6.15;;;2.38;;
48685;SDS011;34485;51.536;3.816;2024-03-02T12:54:59;5.72;;;2.35;;
48685;SDS011;34485;51.536;3.816;2024-03-02T12:57:26;6.00;;;2.20;;
48685;SDS011;34485;51.536;3.816;2024-03-02T12:59:57;6.70;;;2.92;;
48685;SDS011;34485;51.536;3.816;2024-03-02T13:02:26;4.97;;;2.67;;
48685;SDS011;34485;51.536;3.816;2024-03-02T13:04:53;6.97;;;2.30;;
48685;SDS011;34485;51.536;3.816;2024-03-02T13:07:19;5.45;;;2.22;;
48685;SDS011;34485;51.536;3.816;2024-03-02T13:09:47;5.13;;;1.97;;
48685;SDS011;34485;51.536;3.816;2024-03-02T13:12:17;5.13;;;2.25;;
48685;SDS011;34485;51.536;3.816;2024-03-02T13:14:47;8.05;;;3.20;;
48685;SDS011;34485;51.536;3.816;2024-03-02T13:17:15;3.05;;;2.13;;
48685;SDS011;34485;51.536;3.816;2024-03-02T13:19:56;5.27;;;2.80;;
48685;SDS011;34485;51.536;3.816;2024-03-02T13:22:27;3.85;;;2.17;;
48685;SDS011;34485;51.536;3.816;2024-03-02T13:24:53;5.63;;;3.00;;
48685;SDS011;34485;51.536;3.816;2024-03-02T13:27:22;4.88;;;2.38;;
48685;SDS011;34485;51.536;3.816;2024-03-02T13:29:48;1.83;;;1.53;;
48685;SDS011;34485;51.536;3.816;2024-03-02T13:32:14;6.03;;;2.17;;
48685;SDS011;34485;51.536;3.816;2024-03-02T13:34:41;9.30;;;2.58;;
48685;SDS011;34485;51.536;3.816;2024-03-02T13:37:07;5.53;;;2.60;;
48685;SDS011;34485;51.536;3.816;2024-03-02T13:39:33;5.05;;;2.20;;
48685;SDS011;34485;51.536;3.816;2024-03-02T13:42:05;4.50;;;2.40;;
48685;SDS011;34485;51.536;3.816;2024-03-02T13:44:35;7.57;;;2.70;;
48685;SDS011;34485;51.536;3.816;2024-03-02T13:47:01;5.28;;;1.98;;
48685;SDS011;34485;51.536;3.816;2024-03-02T13:49:27;7.55;;;1.83;;
48685;SDS011;34485;51.536;3.816;2024-03-02T13:51:58;5.47;;;3.00;;
48685;SDS011;34485;51.536;3.816;2024-03-02T13:54:25;9.65;;;2.70;;
48685;SDS011;34485;51.536;3.816;2024-03-02T13:56:52;3.90;;;2.25;;
48685;SDS011;34485;51.536;3.816;2024-03-02T13:59:17;6.35;;;2.30;;
48685;SDS011;34485;51.536;3.816;2024-03-02T14:01:44;4.77;;;2.30;;
48685;SDS011;34485;51.536;3.816;2024-03-02T14:04:09;5.32;;;1.95;;
48685;SDS011;34485;51.536;3.816;2024-03-02T14:06:35;1.40;;;1.30;;
48685;SDS011;34485;51.536;3.816;2024-03-02T14:09:01;6.00;;;1.80;;
48685;SDS011;34485;51.536;3.816;2024-03-02T14:11:27;3.53;;;1.80;;
48685;SDS011;34485;51.536;3.816;2024-03-02T14:13:52;8.15;;;3.70;;
48685;SDS011;34485;51.536;3.816;2024-03-02T14:16:19;3.88;;;2.05;;
48685;SDS011;34485;51.536;3.816;2024-03-02T14:18:45;4.53;;;3.15;;
48685;SDS011;34485;51.536;3.816;2024-03-02T14:21:11;5.82;;;3.38;;
48685;SDS011;34485;51.536;3.816;2024-03-02T14:23:37;5.45;;;2.67;;
48685;SDS011;34485;51.536;3.816;2024-03-02T14:26:02;6.37;;;4.33;;
48685;SDS011;34485;51.536;3.816;2024-03-02T14:28:28;3.55;;;1.98;;
48685;SDS011;34485;51.536;3.816;2024-03-02T14:30:54;3.53;;;2.70;;
48685;SDS011;34485;51.536;3.816;2024-03-02T14:33:20;6.43;;;3.17;;
48685;SDS011;34485;51.536;3.816;2024-03-02T14:35:46;11.23;;;10.15;;
48685;SDS011;34485;51.536;3.816;2024-03-02T14:38:12;4.15;;;3.17;;
48685;SDS011;34485;51.536;3.816;2024-03-02T14:40:38;7.85;;;3.25;;
48685;SDS011;34485;51.536;3.816;2024-03-02T14:43:03;8.43;;;3.90;;
48685;SDS011;34485;51.536;3.816;2024-03-02T14:45:29;8.90;;;3.72;;
48685;SDS011;34485;51.536;3.816;2024-03-02T14:47:55;8.80;;;6.47;;
48685;SDS011;34485;51.536;3.816;2024-03-02T14:50:24;16.33;;;10.85;;
48685;SDS011;34485;51.536;3.816;2024-03-02T14:52:51;11.45;;;9.40;;
48685;SDS011;34485;51.536;3.816;2024-03-02T14:55:16;15.60;;;11.37;;
48685;SDS011;34485;51.536;3.816;2024-03-02T14:57:42;8.40;;;6.28;;
48685;SDS011;34485;51.536;3.816;2024-03-02T15:00:08;12.80;;;8.77;;